Time;durP1;ratioP1;P1;durP2;ratioP2;P2;SDS_P1;SDS_P2;PMS_P1;PMS_P2;Temp;Humidity;BMP_temperature;BMP_pressure;BME280_temperature;BME280_humidity;BME280_pressure;Samples;Min_cycle;Max_cycle;Signal;HPM_P1;HPM_P2
2022/03/25 00:00:42;;;;;;;0.70;0.70;;;2.90;99.90;;;;;;5011282;28;20057;-72
2022/03/25 00:03:08;;;;;;;1.00;1.00;;;2.90;99.90;;;;;;5008785;28;20052;-72
2022/03/25 00:05:34;;;;;;;0.70;0.70;;;2.90;99.90;;;;;;5010908;28;20037;-72
2022/03/25 00:07:59;;;;;;;0.40;0.40;;;2.80;99.90;;;;;;4995219;28;20086;-71
2022/03/25 00:10:25;;;;;;;0.45;0.45;;;2.70;99.90;;;;;;5000899;28;20036;-72
2022/03/25 00:12:51;;;;;;;1.48;1.45;;;2.70;99.90;;;;;;5010443;28;20037;-71
2022/03/25 00:15:18;;;;;;;0.50;0.50;;;2.60;99.90;;;;;;5010764;28;20045;-71
2022/03/25 00:17:44;;;;;;;0.70;0.70;;;2.50;99.90;;;;;;4991607;28;20046;-71
2022/03/25 00:20:10;;;;;;;0.68;0.68;;;2.50;99.90;;;;;;4993765;28;20037;-71
2022/03/25 00:22:36;;;;;;;3.42;1.33;;;2.40;99.90;;;;;;5008956;28;20042;-72
2022/03/25 00:25:05;;;;;;;0.50;0.50;;;2.30;99.90;;;;;;5010170;28;20503;-72
2022/03/25 00:27:34;;;;;;;0.57;0.57;;;2.20;99.90;;;;;;5010367;28;20480;-72
2022/03/25 00:30:01;;;;;;;0.40;0.40;;;2.10;99.90;;;;;;5011035;28;20045;-72
2022/03/25 00:32:26;;;;;;;0.88;0.88;;;2.00;99.90;;;;;;4988013;28;20045;-72
2022/03/25 00:34:52;;;;;;;1.35;1.35;;;1.90;99.90;;;;;;4993872;28;20056;-72
2022/03/25 00:37:18;;;;;;;0.60;0.60;;;1.80;99.90;;;;;;4993320;28;20049;-72
2022/03/25 00:39:44;;;;;;;0.70;0.70;;;1.80;99.90;;;;;;5010927;28;20037;-72
2022/03/25 00:42:12;;;;;;;7.82;3.75;;;1.70;99.90;;;;;;5010270;28;20099;-73
2022/03/25 00:44:38;;;;;;;0.70;0.70;;;1.70;99.90;;;;;;5008948;28;20500;-72
2022/03/25 00:47:04;;;;;;;0.40;0.40;;;1.70;99.90;;;;;;4994581;28;20132;-73
2022/03/25 00:49:30;;;;;;;0.95;0.95;;;1.70;99.90;;;;;;5010299;28;20045;-72
2022/03/25 00:51:57;;;;;;;0.50;0.50;;;1.60;99.90;;;;;;5012863;28;20038;-73
2022/03/25 00:54:22;;;;;;;1.63;1.58;;;1.60;99.90;;;;;;4993769;28;20052;-73
2022/03/25 00:56:48;;;;;;;0.50;0.50;;;1.60;99.90;;;;;;4994125;28;20041;-72
2022/03/25 00:59:14;;;;;;;0.50;0.50;;;1.60;99.90;;;;;;5008580;28;20465;-73
2022/03/25 01:01:40;;;;;;;0.50;0.50;;;1.50;99.90;;;;;;5008532;28;20053;-73
2022/03/25 01:04:07;;;;;;;0.50;0.50;;;1.50;99.90;;;;;;4993738;28;20048;-72
2022/03/25 01:06:33;;;;;;;0.95;0.95;;;1.50;99.90;;;;;;5010131;28;20045;-72
2022/03/25 01:08:58;;;;;;;0.80;0.80;;;1.40;99.90;;;;;;5008867;28;20071;-72
2022/03/25 01:11:24;;;;;;;0.50;0.50;;;1.40;99.90;;;;;;5009994;28;20033;-72
2022/03/25 01:13:50;;;;;;;0.60;0.60;;;1.30;99.90;;;;;;5009966;28;20053;-72
2022/03/25 01:16:15;;;;;;;0.40;0.40;;;1.30;99.90;;;;;;4993441;28;20424;-72
2022/03/25 01:18:41;;;;;;;0.50;0.50;;;1.30;99.90;;;;;;5002190;28;20045;-72
2022/03/25 01:21:06;;;;;;;4.90;2.75;;;1.30;99.90;;;;;;5009960;28;20489;-72
2022/03/25 01:23:32;;;;;;;0.50;0.50;;;1.30;99.90;;;;;;5009890;28;20049;-72
2022/03/25 01:25:58;;;;;;;1.42;1.42;;;1.30;99.90;;;;;;4990137;28;20124;-72
2022/03/25 01:28:24;;;;;;;1.00;1.00;;;1.30;99.90;;;;;;5009073;28;20045;-72
2022/03/25 01:30:50;;;;;;;1.20;1.20;;;1.30;99.90;;;;;;5008984;28;20079;-72
2022/03/25 01:33:15;;;;;;;1.33;1.33;;;1.30;99.90;;;;;;4996389;28;20073;-72
2022/03/25 01:35:41;;;;;;;1.10;1.10;;;1.40;99.90;;;;;;4997539;28;20037;-72
2022/03/25 01:38:07;;;;;;;0.93;0.93;;;1.50;99.90;;;;;;4984265;28;20059;-72
2022/03/25 01:40:34;;;;;;;0.80;0.80;;;1.50;99.90;;;;;;5008481;28;20132;-72
2022/03/25 01:42:59;;;;;;;0.40;0.40;;;1.50;99.90;;;;;;5013175;28;20095;-72
2022/03/25 01:45:38;;;;;;;0.90;0.90;;;1.50;99.90;;;;;;5030155;28;20038;-72
2022/03/25 01:48:09;;;;;;;0.95;0.95;;;1.50;99.90;;;;;;5012503;28;20124;-72
2022/03/25 01:50:36;;;;;;;0.50;0.50;;;1.50;99.90;;;;;;5013202;28;20519;-72
2022/03/25 01:53:03;;;;;;;0.50;0.50;;;1.50;99.90;;;;;;5012570;28;20152;-72
2022/03/25 01:55:37;;;;;;;2.92;2.65;;;1.40;99.90;;;;;;4997057;28;20144;-72
2022/03/25 01:58:05;;;;;;;0.50;0.50;;;1.40;99.90;;;;;;4995608;28;20092;-72
2022/03/25 02:00:31;;;;;;;0.65;0.65;;;1.40;99.90;;;;;;4991520;28;20071;-72
2022/03/25 02:02:56;;;;;;;0.80;0.80;;;1.30;99.90;;;;;;5012596;28;20041;-72
2022/03/25 02:05:22;;;;;;;0.50;0.50;;;1.20;99.90;;;;;;5013239;28;20052;-72
2022/03/25 02:07:48;;;;;;;0.50;0.50;;;1.10;99.90;;;;;;5013494;28;20072;-72
2022/03/25 02:10:14;;;;;;;4.78;3.35;;;1.00;99.90;;;;;;5012810;28;20076;-72
2022/03/25 02:12:40;;;;;;;0.80;0.80;;;0.90;99.90;;;;;;5013025;28;20091;-72
2022/03/25 02:15:07;;;;;;;1.35;1.35;;;0.80;99.90;;;;;;4996869;28;20041;-72
2022/03/25 02:17:33;;;;;;;0.43;0.43;;;0.70;99.90;;;;;;5012360;28;20048;-72
2022/03/25 02:19:58;;;;;;;0.45;0.45;;;0.70;99.90;;;;;;5010279;28;20045;-72
2022/03/25 02:22:24;;;;;;;1.05;1.05;;;0.60;99.90;;;;;;5012969;28;20416;-72
2022/03/25 02:24:50;;;;;;;4.13;2.30;;;0.60;99.90;;;;;;5012377;28;20060;-72
2022/03/25 02:27:16;;;;;;;0.60;0.60;;;0.60;99.90;;;;;;5012388;28;20045;-73
2022/03/25 02:29:43;;;;;;;5.70;4.55;;;0.60;99.90;;;;;;5009862;28;20088;-72
2022/03/25 02:32:10;;;;;;;3.20;2.95;;;0.60;99.90;;;;;;5011255;28;20500;-72
2022/03/25 02:34:37;;;;;;;3.72;2.70;;;0.70;99.90;;;;;;4995694;28;20124;-72
2022/03/25 02:37:04;;;;;;;4.35;3.95;;;0.70;99.90;;;;;;4996682;28;20049;-72
2022/03/25 02:39:30;;;;;;;1.95;1.85;;;0.80;99.90;;;;;;4995602;28;20041;-72
2022/03/25 02:41:56;;;;;;;0.88;0.88;;;0.90;99.90;;;;;;5012124;28;20046;-72
2022/03/25 02:44:22;;;;;;;5.38;1.58;;;0.90;99.90;;;;;;4995349;28;20041;-72
2022/03/25 02:46:48;;;;;;;1.05;1.05;;;0.90;99.90;;;;;;5023981;28;20090;-72
2022/03/25 02:49:14;;;;;;;1.25;1.15;;;0.80;99.90;;;;;;5012137;28;20464;-71
2022/03/25 02:51:40;;;;;;;0.40;0.40;;;0.80;99.90;;;;;;4999995;28;20034;-73
2022/03/25 02:54:05;;;;;;;0.60;0.60;;;0.70;99.90;;;;;;5011636;28;20108;-72
2022/03/25 02:56:32;;;;;;;0.90;0.90;;;0.70;99.90;;;;;;5004560;28;20052;-73
2022/03/25 02:58:59;;;;;;;1.40;1.40;;;0.60;99.90;;;;;;5007154;28;20045;-73
2022/03/25 03:01:25;;;;;;;23.50;6.07;;;0.50;99.90;;;;;;5012422;28;20170;-72
2022/03/25 03:03:51;;;;;;;0.50;0.50;;;0.30;99.90;;;;;;5012144;28;20400;-72
2022/03/25 03:06:17;;;;;;;1.55;0.80;;;0.20;99.90;;;;;;4995566;28;20072;-72
2022/03/25 03:08:42;;;;;;;0.45;0.45;;;0.10;99.90;;;;;;5008878;28;20623;-73
2022/03/25 03:11:08;;;;;;;0.50;0.50;;;0.00;99.90;;;;;;5011309;28;20517;-72
2022/03/25 03:13:34;;;;;;;0.93;0.93;;;-0.10;99.90;;;;;;5012247;28;20049;-72
2022/03/25 03:16:00;;;;;;;0.50;0.50;;;-0.20;99.90;;;;;;5001025;28;20080;-72
2022/03/25 03:18:26;;;;;;;0.70;0.70;;;-0.20;99.90;;;;;;4995393;28;20599;-72
2022/03/25 03:20:52;;;;;;;1.38;1.35;;;-0.30;99.90;;;;;;5012021;28;20128;-73
2022/03/25 03:23:18;;;;;;;1.15;1.15;;;-0.30;99.90;;;;;;5011003;28;20059;-72
2022/03/25 03:25:43;;;;;;;0.75;0.75;;;-0.40;99.90;;;;;;4994822;28;20073;-73
2022/03/25 03:28:09;;;;;;;0.50;0.50;;;-0.30;99.90;;;;;;5011314;28;20061;-72
2022/03/25 03:30:34;;;;;;;1.45;1.45;;;-0.30;99.90;;;;;;4995893;28;20493;-72
2022/03/25 03:33:04;;;;;;;3.53;3.20;;;-0.20;99.90;;;;;;5011458;28;20072;-72
2022/03/25 03:35:32;;;;;;;3.40;2.88;;;-0.10;99.90;;;;;;4995155;28;20103;-73
2022/03/25 03:37:58;;;;;;;1.08;1.08;;;0.00;99.90;;;;;;5011610;28;20413;-73
2022/03/25 03:40:23;;;;;;;2.15;2.05;;;0.20;99.90;;;;;;5013737;28;20049;-73
2022/03/25 03:42:49;;;;;;;0.80;0.80;;;0.20;99.90;;;;;;4994989;28;20144;-73
2022/03/25 03:45:16;;;;;;;0.65;0.65;;;0.20;99.90;;;;;;4995191;28;20052;-73
2022/03/25 03:47:42;;;;;;;0.60;0.60;;;0.20;99.90;;;;;;4994518;28;20394;-73
2022/03/25 03:50:12;;;;;;;0.57;0.57;;;0.30;99.90;;;;;;5011236;28;20069;-73
2022/03/25 03:52:39;;;;;;;2.38;2.22;;;0.30;99.90;;;;;;4994737;28;20045;-73
2022/03/25 03:55:06;;;;;;;8.60;6.20;;;0.30;99.90;;;;;;5025205;28;20120;-73
2022/03/25 03:57:32;;;;;;;2.15;2.05;;;0.30;99.90;;;;;;5010339;28;20753;-73
2022/03/25 03:59:58;;;;;;;0.60;0.60;;;0.30;99.90;;;;;;5011561;28;20051;-73
2022/03/25 04:02:23;;;;;;;0.70;0.70;;;0.30;99.90;;;;;;5010575;28;20045;-73
2022/03/25 04:04:49;;;;;;;0.90;0.90;;;0.30;99.90;;;;;;4994150;28;20038;-73
2022/03/25 04:07:15;;;;;;;1.17;1.17;;;0.30;99.90;;;;;;5008275;28;20091;-73
2022/03/25 04:09:41;;;;;;;2.83;2.63;;;0.30;99.90;;;;;;5016600;28;20034;-73
2022/03/25 04:12:12;;;;;;;3.63;3.33;;;0.30;99.90;;;;;;4994716;28;20041;-73
2022/03/25 04:14:39;;;;;;;5.40;4.90;;;0.30;99.90;;;;;;5010994;28;20037;-73
2022/03/25 04:17:04;;;;;;;0.50;0.50;;;0.30;99.90;;;;;;4994249;28;20041;-73
2022/03/25 04:19:30;;;;;;;1.58;1.55;;;0.30;99.90;;;;;;5009468;28;20045;-72
2022/03/25 04:21:55;;;;;;;1.13;1.13;;;0.40;99.90;;;;;;5010585;28;20049;-72
2022/03/25 04:24:22;;;;;;;0.50;0.50;;;0.40;99.90;;;;;;5010235;28;20056;-72
2022/03/25 04:26:48;;;;;;;0.57;0.57;;;0.40;99.90;;;;;;5011052;28;20044;-72
2022/03/25 04:29:13;;;;;;;0.60;0.60;;;0.40;99.90;;;;;;4992314;28;20033;-72
2022/03/25 04:31:39;;;;;;;1.63;1.58;;;0.40;99.90;;;;;;5009077;28;20061;-72
2022/03/25 04:34:04;;;;;;;0.90;0.90;;;0.30;99.90;;;;;;4994996;28;20049;-72
2022/03/25 04:36:30;;;;;;;0.50;0.50;;;0.30;99.90;;;;;;4994061;28;20049;-72
2022/03/25 04:38:56;;;;;;;0.50;0.50;;;0.30;99.90;;;;;;5009222;28;20136;-72
2022/03/25 04:41:22;;;;;;;0.60;0.60;;;0.20;99.90;;;;;;5010783;28;20430;-72
2022/03/25 04:43:48;;;;;;;0.60;0.60;;;0.20;99.90;;;;;;4994559;28;20060;-72
2022/03/25 04:46:14;;;;;;;0.50;0.50;;;0.10;99.90;;;;;;5010334;28;20774;-72
2022/03/25 04:48:40;;;;;;;0.57;0.57;;;0.10;99.90;;;;;;4993458;28;20519;-72
2022/03/25 04:51:06;;;;;;;0.60;0.60;;;-0.10;99.90;;;;;;4993818;28;20037;-72
2022/03/25 04:53:34;;;;;;;1.95;1.00;;;-0.10;99.90;;;;;;5010092;28;20161;-72
2022/03/25 04:56:00;;;;;;;2.10;2.00;;;-0.20;99.90;;;;;;4993907;28;20053;-72
2022/03/25 04:58:26;;;;;;;0.85;0.85;;;-0.20;99.90;;;;;;4993942;28;20041;-72
2022/03/25 05:00:52;;;;;;;0.60;0.60;;;-0.10;99.90;;;;;;5010711;28;20094;-72
2022/03/25 05:03:19;;;;;;;0.55;0.55;;;-0.10;99.90;;;;;;5002990;28;20462;-72
2022/03/25 05:05:45;;;;;;;3.47;3.28;;;-0.10;99.90;;;;;;5010306;28;20041;-72
2022/03/25 05:08:11;;;;;;;1.02;1.02;;;-0.10;99.90;;;;;;5012932;28;20041;-72
2022/03/25 05:10:40;;;;;;;0.90;0.90;;;0.00;99.90;;;;;;4982818;28;20050;-72
2022/03/25 05:13:08;;;;;;;0.70;0.70;;;0.00;99.90;;;;;;4995577;28;20060;-72
2022/03/25 05:15:34;;;;;;;0.60;0.60;;;0.10;99.90;;;;;;5030810;28;20037;-72
2022/03/25 05:18:00;;;;;;;0.50;0.50;;;0.20;99.90;;;;;;5013489;28;20044;-73
2022/03/25 05:20:25;;;;;;;0.80;0.80;;;0.20;99.90;;;;;;5013734;28;20072;-73
2022/03/25 05:22:51;;;;;;;0.60;0.60;;;0.20;99.90;;;;;;5013801;28;20132;-72
2022/03/25 05:25:19;;;;;;;1.60;1.00;;;0.10;99.90;;;;;;5013087;28;20049;-72
2022/03/25 05:27:50;;;;;;;0.90;0.90;;;0.10;99.90;;;;;;5013776;28;20033;-72
2022/03/25 05:30:18;;;;;;;0.80;0.80;;;0.10;99.90;;;;;;4996913;28;20053;-73
2022/03/25 05:32:44;;;;;;;0.52;0.52;;;0.00;99.90;;;;;;5013138;28;20041;-72
2022/03/25 05:35:10;;;;;;;1.63;1.52;;;0.00;99.90;;;;;;5013552;28;20516;-73
2022/03/25 05:37:37;;;;;;;1.60;1.50;;;0.00;99.90;;;;;;5012407;28;20045;-73
2022/03/25 05:40:04;;;;;;;1.13;1.13;;;0.10;99.90;;;;;;4996961;28;20569;-73
2022/03/25 05:42:30;;;;;;;1.42;1.40;;;0.20;99.90;;;;;;4996811;28;20048;-72
2022/03/25 05:44:55;;;;;;;0.60;0.60;;;0.30;99.90;;;;;;5012977;28;20045;-72
2022/03/25 05:47:21;;;;;;;2.42;2.25;;;0.40;99.90;;;;;;4997614;28;20473;-72
2022/03/25 05:49:46;;;;;;;0.60;0.60;;;0.50;99.90;;;;;;5012443;28;20053;-72
2022/03/25 05:52:12;;;;;;;0.65;0.65;;;0.50;99.90;;;;;;5012922;28;20120;-72
2022/03/25 05:54:37;;;;;;;0.77;0.77;;;0.60;99.90;;;;;;5017375;28;20041;-72
2022/03/25 05:57:04;;;;;;;0.70;0.70;;;0.70;99.90;;;;;;4992705;28;20045;-72
2022/03/25 05:59:30;;;;;;;0.68;0.68;;;0.80;99.90;;;;;;5012551;28;20037;-72
2022/03/25 06:01:55;;;;;;;0.60;0.60;;;0.80;99.90;;;;;;4996215;28;20103;-72
2022/03/25 06:04:21;;;;;;;1.08;1.08;;;0.90;99.90;;;;;;5013079;28;20457;-72
2022/03/25 06:06:47;;;;;;;1.92;1.83;;;1.00;99.90;;;;;;4996629;28;20124;-72
2022/03/25 06:09:12;;;;;;;0.60;0.60;;;1.00;99.90;;;;;;4983373;28;20042;-72
2022/03/25 06:11:38;;;;;;;1.60;1.55;;;1.10;99.90;;;;;;4993281;28;20125;-72
2022/03/25 06:14:03;;;;;;;1.40;1.40;;;1.20;99.90;;;;;;5024627;28;20536;-72
2022/03/25 06:16:29;;;;;;;0.50;0.50;;;1.30;99.90;;;;;;4996366;28;20068;-72
2022/03/25 06:18:55;;;;;;;0.50;0.50;;;1.30;99.90;;;;;;4992036;28;20128;-72
2022/03/25 06:21:21;;;;;;;0.60;0.60;;;1.40;99.90;;;;;;4996748;28;20064;-72
2022/03/25 06:23:47;;;;;;;0.50;0.50;;;1.40;99.90;;;;;;5012125;28;20095;-72
2022/03/25 06:26:12;;;;;;;0.50;0.50;;;1.50;99.90;;;;;;5011286;28;20053;-72
2022/03/25 06:28:38;;;;;;;0.70;0.70;;;1.50;99.90;;;;;;4997345;28;20103;-72
2022/03/25 06:31:04;;;;;;;0.98;0.98;;;1.60;99.90;;;;;;4995715;28;20046;-72
2022/03/25 06:33:29;;;;;;;0.60;0.60;;;1.70;99.90;;;;;;5013109;28;20041;-72
2022/03/25 06:35:56;;;;;;;0.60;0.60;;;1.70;99.90;;;;;;4996737;28;20574;-72
2022/03/25 06:38:21;;;;;;;1.85;1.75;;;1.80;99.90;;;;;;4996525;28;20517;-72
2022/03/25 06:40:47;;;;;;;1.02;1.02;;;1.80;99.90;;;;;;4996907;28;20051;-72
2022/03/25 06:43:13;;;;;;;1.05;1.05;;;1.90;99.90;;;;;;5013240;28;20049;-72
2022/03/25 06:45:38;;;;;;;8.38;2.05;;;2.10;99.90;;;;;;5012931;28;20037;-72
2022/03/25 06:48:04;;;;;;;1.92;1.83;;;2.30;99.90;;;;;;4996014;28;20735;-72
2022/03/25 06:50:30;;;;;;;0.50;0.50;;;2.40;99.90;;;;;;5001741;28;20036;-72
2022/03/25 06:53:01;;;;;;;0.60;0.60;;;2.60;99.90;;;;;;5007292;28;20041;-72
2022/03/25 06:55:27;;;;;;;4.57;2.75;;;2.70;99.90;;;;;;4993237;28;20104;-72
2022/03/25 06:57:53;;;;;;;0.60;0.60;;;2.80;99.90;;;;;;4996699;28;20041;-72
2022/03/25 07:00:21;;;;;;;0.95;0.88;;;3.00;99.90;;;;;;4995693;28;20038;-72
2022/03/25 07:02:47;;;;;;;2.05;1.95;;;3.10;99.90;;;;;;5012514;28;20464;-72
2022/03/25 07:05:14;;;;;;;2.45;2.10;;;3.30;99.90;;;;;;4995893;28;20052;-72
2022/03/25 07:07:41;;;;;;;1.63;1.58;;;3.40;99.90;;;;;;5012601;28;20380;-72
2022/03/25 07:10:12;;;;;;;1.60;1.50;;;3.60;99.90;;;;;;5001053;28;20052;-72
2022/03/25 07:12:43;;;;;;;8.80;1.15;;;3.70;99.90;;;;;;4991389;28;20379;-72
2022/03/25 07:15:09;;;;;;;0.70;0.70;;;3.90;99.90;;;;;;5013996;28;20091;-72
2022/03/25 07:17:37;;;;;;;0.38;0.38;;;4.00;99.90;;;;;;4989315;28;20081;-71
2022/03/25 07:20:05;;;;;;;4.00;3.63;;;4.20;99.90;;;;;;5019019;28;20046;-72
2022/03/25 07:22:31;;;;;;;0.40;0.40;;;4.30;99.90;;;;;;5010403;28;20053;-72
2022/03/25 07:24:56;;;;;;;5.22;3.67;;;4.50;99.90;;;;;;5011112;28;20063;-72
2022/03/25 07:27:22;;;;;;;17.00;3.65;;;4.80;99.90;;;;;;5010734;28;20053;-72
2022/03/25 07:29:48;;;;;;;3.42;3.13;;;5.20;99.90;;;;;;4995264;28;20115;-72
2022/03/25 07:32:13;;;;;;;1.30;1.30;;;5.40;99.90;;;;;;5010842;28;20069;-72
2022/03/25 07:34:39;;;;;;;11.90;5.07;;;5.50;99.90;;;;;;5008233;28;20041;-72
2022/03/25 07:37:05;;;;;;;5.72;3.90;;;5.60;99.90;;;;;;5003759;28;20045;-72
2022/03/25 07:39:32;;;;;;;3.17;2.88;;;5.70;99.90;;;;;;5011073;28;20064;-73
2022/03/25 07:41:58;;;;;;;18.35;9.73;;;5.90;99.90;;;;;;4995553;28;20136;-73
2022/03/25 07:44:23;;;;;;;1.67;1.58;;;6.00;99.90;;;;;;5006873;28;20046;-73
2022/03/25 07:46:49;;;;;;;2.20;2.10;;;6.10;99.90;;;;;;5002969;28;20056;-73
2022/03/25 07:49:15;;;;;;;3.05;1.77;;;6.30;99.90;;;;;;4987507;28;20030;-73
2022/03/25 07:51:41;;;;;;;5.68;2.55;;;6.50;99.90;;;;;;5027422;28;20033;-73
2022/03/25 07:54:06;;;;;;;11.45;5.13;;;6.70;99.90;;;;;;5005152;28;20041;-71
2022/03/25 07:56:32;;;;;;;1.90;1.25;;;7.00;99.90;;;;;;5009908;28;20045;-71
2022/03/25 07:58:59;;;;;;;0.63;0.63;;;7.20;99.90;;;;;;5008655;28;20042;-71
2022/03/25 08:01:25;;;;;;;7.22;4.25;;;7.40;99.90;;;;;;4993479;28;20047;-72
2022/03/25 08:03:51;;;;;;;6.82;4.60;;;7.50;99.90;;;;;;5026605;28;20034;-72
2022/03/25 08:06:16;;;;;;;3.30;2.75;;;7.60;99.90;;;;;;5025211;28;20402;-72
2022/03/25 08:08:42;;;;;;;23.50;3.42;;;7.90;99.90;;;;;;5027419;28;20515;-72
2022/03/25 08:11:08;;;;;;;2.47;2.25;;;8.10;99.90;;;;;;5009757;28;20041;-72
2022/03/25 08:13:34;;;;;;;2.40;2.30;;;8.20;99.90;;;;;;4993710;28;20041;-72
2022/03/25 08:16:00;;;;;;;11.65;5.65;;;8.40;99.90;;;;;;5009110;28;20543;-72
2022/03/25 08:18:26;;;;;;;2.85;2.65;;;8.50;99.90;;;;;;5010018;28;20049;-72
2022/03/25 08:20:53;;;;;;;10.88;5.53;;;8.70;99.90;;;;;;5008792;28;20052;-72
2022/03/25 08:28:56;;;;;;;1.27;1.17;;;9.10;99.90;;;;;;5005465;28;20045;-72
2022/03/25 08:31:24;;;;;;;4.53;2.92;;;9.30;99.90;;;;;;4990547;28;20120;-72
2022/03/25 08:33:50;;;;;;;2.30;2.20;;;9.50;99.90;;;;;;4991043;28;20131;-72
2022/03/25 08:36:17;;;;;;;3.97;2.40;;;9.60;99.90;;;;;;4993094;28;20239;-72
2022/03/25 08:38:43;;;;;;;11.60;6.43;;;9.70;99.90;;;;;;5008864;28;20049;-72
2022/03/25 08:41:09;;;;;;;1.75;1.50;;;9.90;99.90;;;;;;5009095;28;20053;-74
2022/03/25 08:43:35;;;;;;;1.23;1.23;;;10.10;99.90;;;;;;4991616;28;20041;-72
2022/03/25 08:46:01;;;;;;;1.52;1.33;;;10.30;99.90;;;;;;4996512;28;20040;-72
2022/03/25 08:48:28;;;;;;;11.68;6.07;;;10.50;99.90;;;;;;5006870;28;20056;-72
2022/03/25 08:50:54;;;;;;;3.63;3.25;;;10.70;99.90;;;;;;5008432;28;20046;-72
2022/03/25 08:53:20;;;;;;;8.25;5.20;;;11.10;99.90;;;;;;4993129;28;20033;-72
2022/03/25 08:55:46;;;;;;;0.65;0.65;;;11.60;99.90;;;;;;4992771;28;20029;-72
2022/03/25 08:58:11;;;;;;;12.43;5.15;;;12.10;99.90;;;;;;5009940;28;20472;-72
2022/03/25 09:00:38;;;;;;;9.05;5.35;;;12.80;99.90;;;;;;4992688;28;20044;-72
2022/03/25 09:03:05;;;;;;;0.82;0.82;;;13.40;99.20;;;;;;5008189;28;20196;-72
2022/03/25 09:05:31;;;;;;;3.28;2.35;;;14.00;99.20;;;;;;5009318;28;20040;-72
2022/03/25 09:07:56;;;;;;;6.88;4.32;;;14.50;95.70;;;;;;4992902;28;20041;-72
2022/03/25 09:10:22;;;;;;;1.75;1.17;;;14.80;94.30;;;;;;5009017;28;20412;-72
2022/03/25 09:12:48;;;;;;;4.18;1.77;;;14.90;91.50;;;;;;4990026;28;20052;-72
2022/03/25 09:15:15;;;;;;;9.75;5.25;;;15.40;91.80;;;;;;5009510;28;20029;-72
2022/03/25 09:17:42;;;;;;;1.17;1.17;;;15.60;88.80;;;;;;5008929;28;20075;-72
2022/03/25 09:20:09;;;;;;;7.85;3.75;;;15.80;90.50;;;;;;5009180;28;20049;-72
2022/03/25 09:22:35;;;;;;;4.53;4.03;;;16.10;87.00;;;;;;5001657;28;20041;-73
2022/03/25 09:25:02;;;;;;;7.70;2.75;;;16.20;80.60;;;;;;5009217;28;20057;-72
2022/03/25 09:27:28;;;;;;;6.07;5.30;;;16.30;79.20;;;;;;5007014;28;20041;-73
2022/03/25 09:29:54;;;;;;;11.60;6.95;;;16.60;81.90;;;;;;4992824;28;20052;-72
2022/03/25 09:32:19;;;;;;;11.27;5.65;;;16.50;73.00;;;;;;4989489;28;20034;-72
2022/03/25 09:37:29;;;;;;;10.60;5.80;;;16.40;72.30;;;;;;5008654;28;20049;-72
2022/03/25 09:39:55;;;;;;;10.38;5.68;;;16.90;72.40;;;;;;5011819;28;20064;-72
2022/03/25 09:42:21;;;;;;;12.05;6.85;;;16.70;63.90;;;;;;5007579;28;20048;-73
2022/03/25 09:44:48;;;;;;;0.88;0.88;;;16.50;66.00;;;;;;5020496;28;20049;-73
2022/03/25 09:47:16;;;;;;;7.40;4.43;;;16.40;67.10;;;;;;5010577;28;20049;-73
2022/03/25 09:49:42;;;;;;;0.85;0.82;;;16.60;69.90;;;;;;5008661;28;20046;-72
2022/03/25 09:52:09;;;;;;;2.05;1.88;;;16.90;69.20;;;;;;5007467;28;20038;-72
2022/03/25 09:54:35;;;;;;;7.25;4.32;;;17.20;67.20;;;;;;4996759;28;20127;-73
2022/03/25 09:57:01;;;;;;;4.68;3.72;;;17.40;67.40;;;;;;5013840;28;20504;-73
2022/03/25 09:59:27;;;;;;;0.60;0.60;;;17.50;65.70;;;;;;5013833;28;20099;-73
2022/03/25 10:01:52;;;;;;;11.25;5.30;;;17.30;65.20;;;;;;5012986;28;20396;-73
2022/03/25 10:04:37;;;;;;;6.28;3.70;;;17.20;62.40;;;;;;4996748;28;20124;-73
2022/03/25 10:07:23;;;;;;;3.88;1.88;;;17.00;61.90;;;;;;4993988;28;20104;-73
2022/03/25 10:10:04;;;;;;;4.97;2.42;;;16.80;63.50;;;;;;4998383;28;20037;-73
2022/03/25 10:12:30;;;;;;;11.15;5.68;;;16.70;63.30;;;;;;5011919;28;20128;-73
2022/03/25 10:15:21;;;;;;;15.55;8.18;;;16.60;57.90;;;;;;4994108;28;20076;-74
2022/03/25 10:17:57;;;;;;;10.73;6.38;;;16.30;57.90;;;;;;5004474;28;20067;-74
2022/03/25 10:20:29;;;;;;;8.02;4.03;;;16.10;59.80;;;;;;5004335;28;20129;-73
2022/03/25 10:23:06;;;;;;;6.38;3.38;;;16.10;58.00;;;;;;5000097;28;20042;-73
2022/03/25 10:25:41;;;;;;;6.13;4.25;;;16.00;60.30;;;;;;5005207;28;20057;-74
2022/03/25 10:28:31;;;;;;;8.50;5.80;;;16.10;60.30;;;;;;4984683;28;20128;-72
2022/03/25 10:31:00;;;;;;;3.10;2.80;;;16.20;60.00;;;;;;4993842;28;20048;-73
2022/03/25 10:33:25;;;;;;;13.30;7.68;;;16.20;62.50;;;;;;5012013;28;20033;-73
2022/03/25 10:35:56;;;;;;;13.57;7.85;;;16.40;58.60;;;;;;5007962;28;20516;-72
2022/03/25 10:38:22;;;;;;;17.23;6.78;;;16.30;57.10;;;;;;4987239;28;20045;-72
2022/03/25 10:40:56;;;;;;;15.55;8.05;;;16.20;58.30;;;;;;4995874;28;20033;-72
2022/03/25 10:43:23;;;;;;;9.23;4.82;;;16.10;57.60;;;;;;5028152;28;20045;-72
2022/03/25 10:45:49;;;;;;;6.93;4.43;;;16.10;58.20;;;;;;5013815;28;20042;-72
2022/03/25 10:48:16;;;;;;;7.15;4.50;;;16.10;58.90;;;;;;4993760;28;20037;-72
2022/03/25 10:50:56;;;;;;;28.20;3.13;;;16.20;60.90;;;;;;4988290;28;20131;-72
2022/03/25 10:53:23;;;;;;;10.25;6.10;;;16.40;59.80;;;;;;5009332;28;20056;-72
2022/03/25 10:55:57;;;;;;;17.88;8.07;;;16.60;61.50;;;;;;5019777;28;20405;-73
2022/03/25 10:58:23;;;;;;;18.30;8.43;;;16.70;57.30;;;;;;4990232;28;20052;-72
2022/03/25 11:00:49;;;;;;;7.70;5.10;;;16.70;55.90;;;;;;5011130;28;20030;-72
2022/03/25 11:03:16;;;;;;;20.83;2.92;;;16.60;57.60;;;;;;5003010;28;20077;-72
2022/03/25 11:05:43;;;;;;;7.03;4.82;;;16.50;57.80;;;;;;4980480;28;20257;-73
2022/03/25 11:08:09;;;;;;;3.22;1.88;;;16.60;59.20;;;;;;5009753;28;20045;-73
2022/03/25 11:10:35;;;;;;;10.32;3.80;;;16.80;59.60;;;;;;5011970;28;20048;-72
2022/03/25 11:13:05;;;;;;;8.07;4.78;;;16.90;59.90;;;;;;4989194;28;20509;-73
2022/03/25 11:15:32;;;;;;;18.17;7.63;;;17.10;59.10;;;;;;4992906;28;20095;-72
2022/03/25 11:17:58;;;;;;;6.53;4.57;;;17.20;56.80;;;;;;4989110;28;20045;-72
2022/03/25 11:20:26;;;;;;;17.75;9.05;;;17.20;57.50;;;;;;4994252;28;20099;-72
2022/03/25 11:23:01;;;;;;;6.35;5.28;;;17.30;55.00;;;;;;4993357;28;20041;-73
2022/03/25 11:25:29;;;;;;;10.82;5.78;;;17.20;55.90;;;;;;5009150;28;20136;-73
2022/03/25 11:28:03;;;;;;;1.40;0.98;;;17.00;54.80;;;;;;5004418;28;20161;-73
2022/03/25 11:30:35;;;;;;;10.10;5.40;;;16.90;57.20;;;;;;5024030;28;20045;-73
2022/03/25 11:33:02;;;;;;;13.73;6.93;;;17.00;58.20;;;;;;5005553;28;21322;-73
2022/03/25 11:35:31;;;;;;;14.90;6.60;;;17.20;54.70;;;;;;5008822;28;20375;-73
2022/03/25 11:38:12;;;;;;;7.28;5.32;;;17.20;54.00;;;;;;4992471;28;20042;-72
2022/03/25 11:40:39;;;;;;;12.77;5.65;;;17.00;55.70;;;;;;5003561;28;20045;-72
2022/03/25 11:43:12;;;;;;;5.35;4.10;;;17.10;55.60;;;;;;5004466;28;20064;-72
2022/03/25 11:45:38;;;;;;;;;;;17.10;55.20;;;;;;4985165;28;20740;-72
2022/03/25 11:48:04;;;;;;;7.10;4.95;;;17.10;56.80;;;;;;5017110;28;19932;-72
2022/03/25 11:50:38;;;;;;;4.93;3.85;;;17.20;57.80;;;;;;5003515;28;20036;-73
2022/03/25 11:53:13;;;;;;;6.10;3.00;;;17.40;57.70;;;;;;5004074;28;20040;-73
2022/03/25 11:56:00;;;;;;;5.70;3.67;;;17.50;59.00;;;;;;5000478;28;20674;-73
2022/03/25 11:58:28;;;;;;;10.57;6.28;;;17.70;57.20;;;;;;5002571;28;20535;-73
2022/03/25 12:01:00;;;;;;;5.97;3.95;;;17.80;53.50;;;;;;5006166;28;20030;-73
2022/03/25 12:04:02;;;;;;;16.15;6.97;;;17.60;54.90;;;;;;4990746;28;20038;-72
2022/03/25 12:06:50;;;;;;;5.13;3.70;;;17.60;52.80;;;;;;4945720;28;20046;-73
2022/03/25 12:09:18;;;;;;;5.20;4.07;;;17.50;54.40;;;;;;5001076;28;20060;-73
2022/03/25 12:11:58;;;;;;;9.52;4.00;;;17.60;56.80;;;;;;5007055;28;20052;-73
2022/03/25 12:14:28;;;;;;;3.83;2.72;;;17.90;56.00;;;;;;4991607;28;20128;-73
2022/03/25 12:17:24;;;;;;;4.35;3.28;;;18.00;55.00;;;;;;4988933;28;20459;-73
2022/03/25 12:19:54;;;;;;;13.13;3.08;;;18.00;52.20;;;;;;4981725;28;20232;-73
2022/03/25 12:22:19;;;;;;;18.73;2.67;;;17.90;53.80;;;;;;4989887;28;20045;-72
2022/03/25 12:24:57;;;;;;;4.78;3.72;;;17.80;53.10;;;;;;5010516;28;20075;-73
2022/03/25 12:27:24;;;;;;;3.40;2.60;;;17.90;54.10;;;;;;4993529;28;20037;-73
2022/03/25 12:29:52;;;;;;;3.88;2.97;;;18.00;52.80;;;;;;5011140;28;20052;-73
2022/03/25 12:32:20;;;;;;;7.13;2.08;;;18.00;52.50;;;;;;5010538;28;20429;-72
2022/03/25 12:34:51;;;;;;;2.20;2.00;;;18.00;51.80;;;;;;5011447;28;20057;-73
2022/03/25 12:37:35;;;;;;;10.57;4.45;;;17.90;53.60;;;;;;5007120;28;20140;-73
2022/03/25 12:40:15;;;;;;;5.18;2.85;;;18.00;51.90;;;;;;5002753;28;20409;-72
2022/03/25 12:42:42;;;;;;;13.70;4.65;;;17.80;52.70;;;;;;5006229;28;20091;-72
2022/03/25 12:45:08;;;;;;;3.60;3.10;;;17.80;52.70;;;;;;5006299;28;20042;-73
2022/03/25 12:47:37;;;;;;;18.77;6.88;;;17.70;53.50;;;;;;5001191;28;20042;-72
2022/03/25 12:50:04;;;;;;;14.30;6.13;;;17.80;52.60;;;;;;4999083;28;20068;-72
2022/03/25 12:52:30;;;;;;;9.50;5.70;;;17.60;52.40;;;;;;4992916;28;20208;-72
2022/03/25 12:55:06;;;;;;;8.15;4.68;;;17.40;52.70;;;;;;5008915;28;20061;-72
2022/03/25 12:57:37;;;;;;;4.97;3.30;;;17.20;53.30;;;;;;5010573;28;20045;-72
2022/03/25 13:00:06;;;;;;;3.13;2.22;;;17.10;54.40;;;;;;5027072;28;20049;-72
2022/03/25 13:02:39;;;;;;;8.60;5.65;;;17.20;54.50;;;;;;5007736;28;20053;-72